Time;durP1;ratioP1;P1;durP2;ratioP2;P2;SDS_P1;SDS_P2;PMS_P1;PMS_P2;Temp;Humidity;BMP_temperature;BMP_pressure;BME280_temperature;BME280_humidity;BME280_pressure;Samples;Min_cycle;Max_cycle;Signal;HPM_P1;HPM_P2
2023/10/10 00:02:20;;;;;;;12.57;4.50;;;;;;;;;;5071302;28;20571;-40
2023/10/10 00:04:48;;;;;;;14.67;4.90;;;;;;;;;;5065552;28;20263;-37
2023/10/10 00:07:15;;;;;;;15.80;5.83;;;;;;;;;;5065243;28;20715;-38
2023/10/10 00:09:44;;;;;;;8.23;4.37;;;;;;;;;;5071831;28;20567;-39
2023/10/10 00:12:19;;;;;;;10.33;4.20;;;;;;;;;;5058092;28;20213;-38
2023/10/10 00:14:50;;;;;;;7.50;4.53;;;;;;;;;;5069549;28;20223;-33
2023/10/10 00:17:17;;;;;;;11.47;4.10;;;;;;;;;;5073645;28;20239;-38
2023/10/10 00:19:54;;;;;;;10.07;4.47;;;;;;;;;;5072672;28;20233;-42
2023/10/10 00:22:26;;;;;;;10.50;4.63;;;;;;;;;;5065663;28;20325;-43
2023/10/10 00:24:54;;;;;;;15.27;4.60;;;;;;;;;;5071961;28;20207;-33
2023/10/10 00:27:23;;;;;;;8.40;4.00;;;;;;;;;;5059469;28;20207;-40
2023/10/10 00:29:53;;;;;;;7.40;4.10;;;;;;;;;;5067046;28;20596;-35
2023/10/10 00:32:24;;;;;;;10.77;4.10;;;;;;;;;;5070384;28;20205;-32
2023/10/10 00:34:51;;;;;;;14.17;4.33;;;;;;;;;;5069824;28;20229;-40
2023/10/10 00:37:21;;;;;;;9.60;4.70;;;;;;;;;;5067659;28;20597;-41
2023/10/10 00:39:52;;;;;;;7.00;4.33;;;;;;;;;;5069016;28;20248;-42
2023/10/10 00:42:21;;;;;;;7.03;3.83;;;;;;;;;;5058407;28;20201;-39
2023/10/10 00:44:48;;;;;;;8.03;3.70;;;;;;;;;;5068556;28;20213;-38
2023/10/10 00:47:21;;;;;;;6.57;3.40;;;;;;;;;;5070232;28;20295;-42
2023/10/10 00:49:49;;;;;;;12.27;4.40;;;;;;;;;;5070699;28;20244;-38
2023/10/10 00:52:17;;;;;;;10.70;4.43;;;;;;;;;;5054375;28;20197;-39
2023/10/10 00:54:45;;;;;;;8.10;4.03;;;;;;;;;;5061438;28;20646;-34
2023/10/10 00:57:17;;;;;;;10.40;4.03;;;;;;;;;;5064230;28;20197;-37
2023/10/10 00:59:45;;;;;;;10.33;4.23;;;;;;;;;;5059359;28;20656;-40
2023/10/10 01:02:12;;;;;;;7.43;3.83;;;;;;;;;;5059335;28;20206;-42
2023/10/10 01:04:55;;;;;;;13.30;4.50;;;;;;;;;;5064866;28;20225;-35
2023/10/10 01:07:23;;;;;;;12.77;4.63;;;;;;;;;;5069022;28;20209;-41
2023/10/10 01:09:57;;;;;;;13.10;4.43;;;;;;;;;;5063712;28;20229;-39
2023/10/10 01:12:25;;;;;;;10.40;4.33;;;;;;;;;;5056980;28;20671;-39
2023/10/10 01:14:54;;;;;;;8.30;4.47;;;;;;;;;;5061016;28;20232;-37
2023/10/10 01:17:26;;;;;;;10.10;4.10;;;;;;;;;;5070188;28;20209;-40
2023/10/10 01:19:58;;;;;;;8.63;4.00;;;;;;;;;;5062649;28;20317;-34
2023/10/10 01:22:40;;;;;;;7.03;3.23;;;;;;;;;;5057374;28;20201;-40
2023/10/10 01:25:31;;;;;;;7.13;4.10;;;;;;;;;;5069562;28;20625;-38
2023/10/10 01:28:01;;;;;;;12.97;4.83;;;;;;;;;;5057238;28;20217;-39
2023/10/10 01:31:04;;;;;;;9.50;4.37;;;;;;;;;;5065208;28;20229;-41
2023/10/10 01:33:42;;;;;;;12.47;4.60;;;;;;;;;;5060690;28;20820;-40
2023/10/10 01:36:11;;;;;;;8.73;4.33;;;;;;;;;;5062457;28;20213;-37
2023/10/10 01:38:59;;;;;;;8.40;3.77;;;;;;;;;;5070061;28;20201;-36
2023/10/10 01:41:34;;;;;;;10.80;4.07;;;;;;;;;;5059446;28;20316;-39
2023/10/10 01:44:11;;;;;;;8.30;3.30;;;;;;;;;;5055633;28;20240;-38
2023/10/10 01:46:40;;;;;;;8.90;4.33;;;;;;;;;;5070269;28;20205;-40
2023/10/10 01:49:13;;;;;;;7.90;3.90;;;;;;;;;;5069887;28;20297;-40
2023/10/10 01:51:42;;;;;;;10.40;4.37;;;;;;;;;;5057571;28;20202;-35
2023/10/10 01:54:15;;;;;;;9.33;4.03;;;;;;;;;;5069629;28;20260;-40
2023/10/10 01:56:44;;;;;;;8.60;4.00;;;;;;;;;;5062178;28;20202;-38
2023/10/10 01:59:14;;;;;;;8.37;4.17;;;;;;;;;;5059893;28;20298;-40
2023/10/10 02:01:41;;;;;;;7.37;3.83;;;;;;;;;;5066183;28;20209;-38
2023/10/10 02:04:10;;;;;;;7.63;3.93;;;;;;;;;;5070522;28;20212;-35
2023/10/10 02:06:39;;;;;;;7.70;3.73;;;;;;;;;;5064819;28;20201;-38
2023/10/10 02:12:12;;;;;;;7.17;3.93;;;;;;;;;;5119338;27;20560;-41
2023/10/10 02:14:42;;;;;;;9.97;3.97;;;;;;;;;;5100845;28;20563;-34
2023/10/10 02:17:20;;;;;;;10.00;3.73;;;;;;;;;;5106400;28;20204;-41
2023/10/10 02:19:53;;;;;;;7.93;3.70;;;;;;;;;;5103241;28;20220;-34
2023/10/10 02:22:23;;;;;;;7.73;3.63;;;;;;;;;;5105441;28;20200;-39
2023/10/10 02:24:51;;;;;;;7.07;3.60;;;;;;;;;;5106587;28;20245;-35
2023/10/10 02:27:28;;;;;;;12.23;3.90;;;;;;;;;;5094888;28;20204;-37
2023/10/10 02:30:03;;;;;;;7.00;3.80;;;;;;;;;;5101715;28;20238;-39
2023/10/10 02:32:33;;;;;;;10.80;4.00;;;;;;;;;;5103458;28;20203;-39
2023/10/10 02:35:16;;;;;;;8.37;3.50;;;;;;;;;;5103822;28;20211;-39
2023/10/10 02:37:45;;;;;;;10.40;4.13;;;;;;;;;;5096554;28;20291;-37
2023/10/10 02:40:15;;;;;;;9.50;3.70;;;;;;;;;;5105663;28;20316;-32
2023/10/10 02:42:51;;;;;;;8.63;4.13;;;;;;;;;;5094694;28;20200;-43
2023/10/10 02:45:28;;;;;;;6.00;3.37;;;;;;;;;;5105412;28;20513;-40
2023/10/10 02:47:55;;;;;;;9.47;3.83;;;;;;;;;;5105248;28;20246;-42
2023/10/10 02:50:41;;;;;;;7.97;3.83;;;;;;;;;;5102357;28;20291;-35
2023/10/10 02:53:08;;;;;;;9.83;4.00;;;;;;;;;;5104794;28;20204;-37
2023/10/10 02:55:40;;;;;;;10.50;3.40;;;;;;;;;;5108308;28;20256;-35
2023/10/10 02:58:20;;;;;;;6.83;3.60;;;;;;;;;;5099270;28;20295;-38
2023/10/10 03:00:48;;;;;;;7.67;4.07;;;;;;;;;;5099276;28;20594;-36
2023/10/10 03:03:18;;;;;;;7.00;3.90;;;;;;;;;;5098773;28;20300;-37
2023/10/10 03:05:50;;;;;;;6.50;3.73;;;;;;;;;;5093594;28;20204;-36
2023/10/10 03:08:18;;;;;;;10.07;4.30;;;;;;;;;;5095579;28;20212;-43
2023/10/10 03:10:53;;;;;;;6.00;3.90;;;;;;;;;;5099540;28;20262;-40
2023/10/10 03:13:42;;;;;;;10.83;3.60;;;;;;;;;;5086806;28;20657;-37
2023/10/10 03:16:31;;;;;;;9.03;4.10;;;;;;;;;;5099750;28;20212;-35
2023/10/10 03:19:15;;;;;;;7.57;3.20;;;;;;;;;;5093712;28;20499;-34
2023/10/10 03:21:50;;;;;;;8.43;4.10;;;;;;;;;;5093829;28;20279;-42
2023/10/10 03:24:29;;;;;;;6.70;3.43;;;;;;;;;;5087488;28;20278;-38
2023/10/10 03:27:10;;;;;;;5.20;3.30;;;;;;;;;;5080340;28;20201;-36
2023/10/10 03:29:47;;;;;;;8.23;3.80;;;;;;;;;;5084140;28;20217;-38
2023/10/10 03:32:30;;;;;;;8.00;3.47;;;;;;;;;;5085071;28;20226;-35
2023/10/10 03:34:57;;;;;;;7.10;4.10;;;;;;;;;;5090002;28;20243;-35
2023/10/10 03:37:40;;;;;;;7.10;3.23;;;;;;;;;;5085020;28;20213;-39
2023/10/10 03:40:21;;;;;;;6.87;3.43;;;;;;;;;;5087680;28;20236;-37
2023/10/10 05:24:51;;;;;;;8.40;3.87;;;;;;;;;;5087660;28;20692;-39
2023/10/10 05:27:29;;;;;;;11.00;4.63;;;;;;;;;;5074604;28;20205;-40
2023/10/10 05:29:56;;;;;;;12.50;3.50;;;;;;;;;;5079857;28;20316;-33
2023/10/10 05:32:27;;;;;;;7.60;3.77;;;;;;;;;;5081098;28;20263;-41
2023/10/10 05:34:54;;;;;;;7.70;3.73;;;;;;;;;;5080664;28;20261;-40
2023/10/10 05:37:21;;;;;;;8.77;3.97;;;;;;;;;;5082320;28;20286;-38
2023/10/10 05:39:56;;;;;;;11.73;3.70;;;;;;;;;;5090296;28;20231;-38
2023/10/10 05:42:26;;;;;;;7.80;3.40;;;;;;;;;;5075779;28;20205;-38
2023/10/10 05:44:53;;;;;;;10.10;4.03;;;;;;;;;;5090450;28;20216;-31
2023/10/10 05:47:20;;;;;;;8.53;3.53;;;;;;;;;;5092559;28;20298;-37
2023/10/10 05:49:47;;;;;;;9.93;3.87;;;;;;;;;;5082747;28;20237;-32
2023/10/10 05:52:14;;;;;;;8.87;3.77;;;;;;;;;;5084390;28;20331;-32
2023/10/10 05:54:42;;;;;;;7.50;3.30;;;;;;;;;;5091583;28;20193;-35
2023/10/10 05:57:11;;;;;;;8.00;3.93;;;;;;;;;;5076875;28;20205;-35
2023/10/10 05:59:39;;;;;;;9.37;3.90;;;;;;;;;;5082709;28;20252;-34
2023/10/10 06:02:11;;;;;;;8.77;3.97;;;;;;;;;;5091210;28;20669;-36
2023/10/10 06:04:38;;;;;;;5.73;3.50;;;;;;;;;;5092119;28;20207;-42
2023/10/10 06:07:05;;;;;;;9.13;3.40;;;;;;;;;;5081180;28;20205;-42
2023/10/10 06:09:34;;;;;;;10.63;3.53;;;;;;;;;;5090058;28;20239;-38
2023/10/10 06:12:04;;;;;;;6.63;3.63;;;;;;;;;;5091809;28;20234;-39
2023/10/10 06:14:33;;;;;;;6.73;3.10;;;;;;;;;;5100357;28;20216;-40
2023/10/10 06:17:00;;;;;;;12.03;3.47;;;;;;;;;;5092904;28;20662;-36
2023/10/10 06:19:27;;;;;;;8.27;3.53;;;;;;;;;;5092133;28;20266;-40
2023/10/10 06:21:59;;;;;;;8.47;3.70;;;;;;;;;;5083870;28;20209;-40
2023/10/10 06:24:27;;;;;;;6.27;3.97;;;;;;;;;;5087471;28;20197;-35
2023/10/10 06:27:00;;;;;;;9.90;4.10;;;;;;;;;;5084849;28;20216;-39
2023/10/10 06:29:29;;;;;;;9.17;3.50;;;;;;;;;;5089754;28;20692;-37
2023/10/10 06:31:57;;;;;;;7.97;3.43;;;;;;;;;;5091314;28;20240;-34
2023/10/10 06:34:29;;;;;;;6.97;3.47;;;;;;;;;;5091692;28;20651;-39
2023/10/10 06:36:56;;;;;;;11.33;4.50;;;;;;;;;;5085525;28;20212;-35
2023/10/10 06:39:32;;;;;;;7.97;3.80;;;;;;;;;;5098024;28;20290;-35
2023/10/10 06:41:59;;;;;;;7.47;3.83;;;;;;;;;;5091704;28;20201;-40
2023/10/10 06:44:34;;;;;;;8.87;3.90;;;;;;;;;;5103564;28;20228;-40
2023/10/10 06:47:08;;;;;;;9.13;3.80;;;;;;;;;;5098191;28;20211;-31
2023/10/10 06:49:44;;;;;;;9.57;4.37;;;;;;;;;;5092193;28;20220;-33
2023/10/10 06:52:18;;;;;;;6.20;3.57;;;;;;;;;;5085648;28;20221;-35
2023/10/10 06:54:45;;;;;;;10.80;4.40;;;;;;;;;;5084043;28;20678;-36
2023/10/10 06:57:17;;;;;;;8.63;4.40;;;;;;;;;;5081704;28;20267;-36
2023/10/10 06:59:44;;;;;;;8.73;3.40;;;;;;;;;;5085168;28;20221;-38
2023/10/10 07:02:20;;;;;;;8.27;3.80;;;;;;;;;;5094425;28;20208;-36
2023/10/10 07:04:52;;;;;;;11.67;4.30;;;;;;;;;;5088111;28;20208;-35
2023/10/10 07:07:19;;;;;;;7.50;3.97;;;;;;;;;;5089848;28;20212;-41
2023/10/10 07:09:47;;;;;;;9.90;3.47;;;;;;;;;;5091113;28;20647;-38
2023/10/10 07:12:16;;;;;;;7.70;3.93;;;;;;;;;;5089682;28;20232;-40
2023/10/10 07:14:45;;;;;;;12.23;4.43;;;;;;;;;;5085901;28;20205;-37
2023/10/10 07:17:14;;;;;;;11.10;4.23;;;;;;;;;;5094923;28;20303;-38
2023/10/10 07:21:04;;;;;;;11.77;4.67;;;;;;;;;;5092686;28;20233;-37
2023/10/10 07:22:43;;;;;;;8.87;3.77;;;;;;;;;;5089784;28;20200;-39
2023/10/10 07:25:43;;;;;;;9.43;4.50;;;;;;;;;;5094866;28;20201;-38
2023/10/10 07:28:00;;;;;;;13.10;4.30;;;;;;;;;;5078553;28;20208;-38
2023/10/10 07:30:33;;;;;;;13.47;4.60;;;;;;;;;;5092857;28;20224;-34
2023/10/10 07:33:03;;;;;;;10.97;4.77;;;;;;;;;;5094399;28;20212;-38
2023/10/10 07:35:36;;;;;;;11.60;4.60;;;;;;;;;;5090462;28;20217;-41
2023/10/10 07:38:03;;;;;;;16.37;4.80;;;;;;;;;;5084658;28;20655;-33
2023/10/10 07:40:30;;;;;;;7.23;3.80;;;;;;;;;;5093882;28;20222;-32
2023/10/10 07:43:02;;;;;;;10.20;4.40;;;;;;;;;;5086440;28;20196;-35
2023/10/10 07:45:33;;;;;;;8.93;3.90;;;;;;;;;;5093069;28;20218;-37
2023/10/10 07:50:49;;;;;;;7.20;4.47;;;;;;;;;;5071721;28;20740;-36
2023/10/10 07:53:17;;;;;;;10.30;4.47;;;;;;;;;;5092463;28;20213;-37
2023/10/10 07:56:00;;;;;;;7.70;4.00;;;;;;;;;;5091965;28;20284;-38
2023/10/10 07:58:42;;;;;;;9.53;4.50;;;;;;;;;;5081874;28;20682;-40
2023/10/10 08:01:10;;;;;;;13.97;5.57;;;;;;;;;;5093578;28;20237;-33
2023/10/10 08:03:43;;;;;;;11.00;4.43;;;;;;;;;;5093508;28;20237;-36
2023/10/10 08:06:11;;;;;;;11.37;4.67;;;;;;;;;;5090553;28;20201;-39
2023/10/10 08:08:40;;;;;;;13.50;5.37;;;;;;;;;;5083105;28;20205;-32
2023/10/10 08:11:12;;;;;;;10.80;4.33;;;;;;;;;;5090730;28;20229;-37
2023/10/10 08:13:59;;;;;;;11.00;4.60;;;;;;;;;;5083463;28;20609;-36
2023/10/10 08:16:29;;;;;;;8.43;4.20;;;;;;;;;;5094645;28;20236;-38
2023/10/10 08:19:04;;;;;;;10.70;4.57;;;;;;;;;;5093955;28;20204;-35
2023/10/10 08:21:36;;;;;;;9.63;4.77;;;;;;;;;;5091013;28;20220;-39
2023/10/10 08:24:03;;;;;;;11.17;4.80;;;;;;;;;;5081992;28;20209;-36
2023/10/10 08:26:38;;;;;;;10.37;4.43;;;;;;;;;;5089950;28;20279;-34
2023/10/10 08:29:07;;;;;;;9.03;4.43;;;;;;;;;;5087298;28;20291;-34
2023/10/10 08:31:36;;;;;;;19.07;5.03;;;;;;;;;;5092803;28;20229;-38
2023/10/10 08:34:04;;;;;;;13.47;5.07;;;;;;;;;;5093143;28;20257;-33
2023/10/10 08:36:31;;;;;;;14.80;5.27;;;;;;;;;;5082204;28;20272;-34
2023/10/10 08:39:10;;;;;;;11.23;4.47;;;;;;;;;;5086495;28;20205;-38
2023/10/10 08:41:39;;;;;;;10.50;4.47;;;;;;;;;;5089184;28;20227;-37
2023/10/10 08:44:09;;;;;;;12.47;5.53;;;;;;;;;;5087904;28;20215;-37
2023/10/10 08:46:45;;;;;;;15.80;4.77;;;;;;;;;;5092629;28;20201;-36
2023/10/10 08:49:15;;;;;;;16.90;5.30;;;;;;;;;;5092641;28;20230;-39
2023/10/10 08:51:43;;;;;;;12.27;4.83;;;;;;;;;;5079038;28;20225;-35
2023/10/10 08:54:15;;;;;;;14.30;4.37;;;;;;;;;;5089741;28;20207;-34
2023/10/10 08:56:53;;;;;;;12.90;4.93;;;;;;;;;;5088826;28;20212;-35
2023/10/10 08:59:20;;;;;;;9.93;4.33;;;;;;;;;;5088794;28;20205;-35
2023/10/10 09:01:47;;;;;;;8.47;4.60;;;;;;;;;;5092311;28;20193;-39
2023/10/10 09:04:19;;;;;;;10.13;4.70;;;;;;;;;;5093293;28;20489;-38
2023/10/10 09:06:58;;;;;;;9.77;4.53;;;;;;;;;;5086928;28;20763;-33
2023/10/10 09:09:34;;;;;;;10.73;4.07;;;;;;;;;;5089823;28;20277;-35
2023/10/10 09:12:03;;;;;;;15.67;5.20;;;;;;;;;;5076338;28;20214;-34
2023/10/10 09:14:41;;;;;;;13.17;4.80;;;;;;;;;;5090304;28;20216;-39
2023/10/10 09:17:08;;;;;;;14.03;3.87;;;;;;;;;;5093039;28;20212;-42
2023/10/10 09:19:47;;;;;;;14.90;4.80;;;;;;;;;;5089626;28;20229;-37
2023/10/10 09:22:28;;;;;;;15.00;4.97;;;;;;;;;;5084623;28;20208;-33
2023/10/10 09:24:56;;;;;;;10.33;3.80;;;;;;;;;;5083772;28;20296;-35
2023/10/10 09:27:27;;;;;;;12.53;4.70;;;;;;;;;;5081916;28;20209;-37
2023/10/10 09:29:56;;;;;;;22.03;4.80;;;;;;;;;;5084916;28;20228;-37
2023/10/10 09:32:36;;;;;;;13.20;5.37;;;;;;;;;;5093459;28;20231;-36
2023/10/10 09:35:08;;;;;;;10.23;4.33;;;;;;;;;;5085336;28;20207;-38
2023/10/10 09:37:38;;;;;;;11.37;4.70;;;;;;;;;;5082681;28;20935;-33
2023/10/10 09:40:15;;;;;;;11.37;4.87;;;;;;;;;;5087711;28;20396;-34
2023/10/10 09:43:11;;;;;;;9.33;3.47;;;;;;;;;;5079898;28;20201;-40
2023/10/10 09:45:55;;;;;;;11.90;4.17;;;;;;;;;;5085381;28;20231;-35
2023/10/10 09:48:46;;;;;;;10.43;4.70;;;;;;;;;;5087624;28;20255;-38
2023/10/10 09:51:30;;;;;;;9.93;4.10;;;;;;;;;;5083570;28;20267;-38
2023/10/10 09:54:15;;;;;;;10.10;3.90;;;;;;;;;;5091163;28;20208;-38
2023/10/10 09:56:43;;;;;;;10.97;4.40;;;;;;;;;;5087417;28;20209;-35
2023/10/10 09:59:11;;;;;;;10.63;4.60;;;;;;;;;;5092036;28;20235;-36
2023/10/10 10:01:44;;;;;;;10.80;3.87;;;;;;;;;;5089354;28;20213;-42
2023/10/10 10:04:18;;;;;;;9.27;4.03;;;;;;;;;;5087859;28;20209;-33
2023/10/10 10:06:59;;;;;;;15.37;5.10;;;;;;;;;;5085306;28;20213;-36
2023/10/10 10:09:38;;;;;;;9.97;4.37;;;;;;;;;;5090393;28;20219;-35
2023/10/10 10:12:19;;;;;;;12.63;4.53;;;;;;;;;;5075848;28;20231;-38
2023/10/10 10:14:50;;;;;;;14.17;4.17;;;;;;;;;;5087331;28;20273;-37
2023/10/10 10:17:21;;;;;;;10.60;4.30;;;;;;;;;;5090146;28;20221;-38
2023/10/10 10:19:49;;;;;;;11.17;3.77;;;;;;;;;;5088479;28;20349;-35
2023/10/10 10:22:18;;;;;;;12.57;4.00;;;;;;;;;;5087232;28;20196;-36
2023/10/10 10:24:54;;;;;;;9.80;4.33;;;;;;;;;;5082770;28;20211;-36
2023/10/10 10:27:31;;;;;;;9.77;3.77;;;;;;;;;;5080096;28;20258;-33
2023/10/10 10:30:20;;;;;;;11.87;4.00;;;;;;;;;;5086180;28;20224;-36
2023/10/10 10:32:54;;;;;;;11.03;4.23;;;;;;;;;;5091202;28;20220;-40
2023/10/10 10:35:22;;;;;;;12.47;4.40;;;;;;;;;;5094562;28;20193;-36
2023/10/10 10:37:59;;;;;;;12.03;3.90;;;;;;;;;;5088012;28;20200;-38
2023/10/10 10:40:41;;;;;;;12.53;4.63;;;;;;;;;;5089231;28;20242;-40
2023/10/10 10:43:14;;;;;;;9.67;3.50;;;;;;;;;;5083809;28;20196;-40
2023/10/10 10:45:44;;;;;;;12.93;4.07;;;;;;;;;;5095773;28;20204;-34
2023/10/10 10:48:29;;;;;;;9.43;3.23;;;;;;;;;;5104140;28;20239;-34
2023/10/10 10:51:03;;;;;;;12.87;4.03;;;;;;;;;;5093173;28;20290;-38
2023/10/10 10:53:39;;;;;;;10.83;3.90;;;;;;;;;;5091171;28;20216;-35
2023/10/10 10:59:12;;;;;;;12.20;3.83;;;;;;;;;;5090305;28;20236;-41
2023/10/10 11:01:43;;;;;;;13.60;3.70;;;;;;;;;;5095122;28;20222;-33
2023/10/10 11:04:14;;;;;;;12.80;4.33;;;;;;;;;;5095724;28;20211;-36
2023/10/10 11:06:50;;;;;;;11.50;4.03;;;;;;;;;;5088122;28;20292;-37
2023/10/10 11:09:28;;;;;;;9.90;4.43;;;;;;;;;;5088732;28;20200;-38
2023/10/10 11:12:03;;;;;;;11.67;3.50;;;;;;;;;;5084196;28;20299;-42
2023/10/10 11:14:30;;;;;;;11.87;3.97;;;;;;;;;;5092398;28;20228;-35
2023/10/10 11:16:57;;;;;;;9.33;3.37;;;;;;;;;;5093877;28;20197;-37
2023/10/10 11:19:38;;;;;;;11.80;4.00;;;;;;;;;;5091351;28;20201;-39
2023/10/10 11:22:12;;;;;;;13.67;4.07;;;;;;;;;;5080320;28;20201;-36
2023/10/10 11:24:46;;;;;;;10.23;4.07;;;;;;;;;;5090498;28;20193;-40
2023/10/10 11:27:21;;;;;;;13.80;3.73;;;;;;;;;;5086227;28;20199;-35
2023/10/10 11:29:50;;;;;;;12.93;3.57;;;;;;;;;;5087621;28;20259;-36
2023/10/10 11:32:23;;;;;;;10.70;3.50;;;;;;;;;;5093370;28;20311;-39
2023/10/10 11:34:51;;;;;;;8.67;4.00;;;;;;;;;;5087553;28;20212;-36
2023/10/10 11:37:20;;;;;;;16.23;4.30;;;;;;;;;;5084811;28;20222;-37
2023/10/10 11:39:57;;;;;;;12.90;3.90;;;;;;;;;;5092866;28;20220;-36
2023/10/10 11:42:26;;;;;;;11.53;3.87;;;;;;;;;;5076688;28;20193;-39
2023/10/10 11:44:54;;;;;;;8.37;3.77;;;;;;;;;;5083671;28;20262;-35
2023/10/10 11:47:25;;;;;;;10.03;3.40;;;;;;;;;;5089936;28;20212;-41
2023/10/10 11:50:02;;;;;;;14.67;3.90;;;;;;;;;;5093081;28;20229;-32
2023/10/10 11:52:29;;;;;;;15.07;4.47;;;;;;;;;;5094903;28;20220;-37
2023/10/10 11:55:00;;;;;;;13.07;3.77;;;;;;;;;;5101537;28;20295;-33
2023/10/10 11:57:33;;;;;;;11.60;3.13;;;;;;;;;;5088856;28;20292;-37
2023/10/10 12:00:07;;;;;;;10.47;3.47;;;;;;;;;;5090078;28;20248;-36
2023/10/10 12:02:40;;;;;;;12.30;3.63;;;;;;;;;;5091753;28;20235;-42
2023/10/10 12:07:58;;;;;;;10.67;3.60;;;;;;;;;;5084362;28;20227;-40
2023/10/10 12:10:40;;;;;;;13.27;3.63;;;;;;;;;;5090537;28;20236;-38
2023/10/10 12:13:09;;;;;;;11.97;3.73;;;;;;;;;;5074463;28;20224;-39
2023/10/10 12:15:39;;;;;;;15.57;4.40;;;;;;;;;;5088015;28;20220;-37
2023/10/10 12:18:09;;;;;;;12.13;3.77;;;;;;;;;;5086460;28;20228;-40
2023/10/10 12:20:36;;;;;;;11.33;4.23;;;;;;;;;;5084695;28;20232;-38
2023/10/10 12:23:04;;;;;;;11.83;3.37;;;;;;;;;;5089508;28;20201;-40
2023/10/10 12:25:33;;;;;;;8.33;3.63;;;;;;;;;;5086354;28;20209;-36
2023/10/10 12:28:00;;;;;;;11.57;4.00;;;;;;;;;;5085409;28;20294;-38
2023/10/10 12:30:27;;;;;;;7.90;3.27;;;;;;;;;;5089741;28;20224;-34
2023/10/10 12:32:56;;;;;;;11.03;4.10;;;;;;;;;;5093120;28;20228;-33
2023/10/10 12:35:25;;;;;;;8.97;3.50;;;;;;;;;;5086640;28;20201;-41
2023/10/10 12:38:01;;;;;;;11.60;3.47;;;;;;;;;;5089548;28;20212;-36
2023/10/10 12:40:29;;;;;;;14.27;4.47;;;;;;;;;;5086961;28;20224;-33
2023/10/10 12:42:57;;;;;;;7.90;3.23;;;;;;;;;;5082405;28;20208;-36
2023/10/10 12:45:25;;;;;;;9.50;3.70;;;;;;;;;;5084198;28;20197;-38
2023/10/10 12:47:53;;;;;;;10.43;3.33;;;;;;;;;;5091630;28;20288;-33
2023/10/10 12:50:26;;;;;;;11.43;3.53;;;;;;;;;;5092891;28;20281;-36
2023/10/10 12:53:03;;;;;;;9.93;3.97;;;;;;;;;;5080571;28;20221;-34
2023/10/10 12:55:31;;;;;;;12.90;4.13;;;;;;;;;;5082217;28;20209;-36
2023/10/10 12:58:00;;;;;;;11.87;3.60;;;;;;;;;;5085912;28;20298;-43
2023/10/10 13:00:33;;;;;;;16.63;4.00;;;;;;;;;;5089192;28;20251;-36
2023/10/10 13:03:00;;;;;;;16.57;4.03;;;;;;;;;;5088335;28;20207;-34
2023/10/10 13:05:28;;;;;;;14.03;3.97;;;;;;;;;;5088074;28;20212;-38
2023/10/10 13:07:58;;;;;;;18.07;4.47;;;;;;;;;;5086554;28;20213;-39
2023/10/10 13:10:27;;;;;;;13.27;4.40;;;;;;;;;;5092118;28;20235;-38
2023/10/10 13:12:54;;;;;;;8.17;3.63;;;;;;;;;;5075402;28;20240;-37
2023/10/10 13:15:30;;;;;;;8.90;4.60;;;;;;;;;;5092912;28;20211;-37
2023/10/10 13:20:39;;;;;;;12.17;4.20;;;;;;;;;;5098315;28;20251;-39
2023/10/10 13:23:07;;;;;;;10.67;4.20;;;;;;;;;;5080011;28;20204;-34
2023/10/10 13:25:37;;;;;;;8.80;4.00;;;;;;;;;;5092264;28;20208;-32
2023/10/10 13:28:09;;;;;;;14.43;4.77;;;;;;;;;;5086304;28;20205;-38
2023/10/10 13:30:38;;;;;;;8.30;4.33;;;;;;;;;;5087804;28;20258;-40
2023/10/10 13:33:07;;;;;;;10.50;3.70;;;;;;;;;;5091821;28;20217;-36
2023/10/10 13:35:37;;;;;;;11.57;3.73;;;;;;;;;;5082827;28;20214;-41
2023/10/10 13:38:04;;;;;;;9.17;4.10;;;;;;;;;;5075895;28;20304;-37
2023/10/10 13:40:37;;;;;;;14.30;4.10;;;;;;;;;;5089810;28;20221;-38
2023/10/10 13:43:17;;;;;;;9.60;3.43;;;;;;;;;;5073102;28;20319;-40
2023/10/10 13:45:48;;;;;;;11.13;3.90;;;;;;;;;;5087945;28;20252;-39
2023/10/10 13:48:18;;;;;;;12.57;4.70;;;;;;;;;;5091415;28;20262;-40
2023/10/10 13:50:45;;;;;;;13.30;4.27;;;;;;;;;;5091767;28;20228;-40
2023/10/10 13:53:13;;;;;;;10.87;3.63;;;;;;;;;;5085597;28;20224;-41
2023/10/10 13:55:42;;;;;;;12.33;4.70;;;;;;;;;;5091724;28;20210;-38
2023/10/10 13:58:11;;;;;;;15.70;4.03;;;;;;;;;;5083811;28;20297;-39
2023/10/10 14:00:39;;;;;;;14.97;4.50;;;;;;;;;;5090886;28;20221;-40
2023/10/10 14:03:08;;;;;;;12.13;4.43;;;;;;;;;;5091131;28;20212;-36
2023/10/10 14:05:36;;;;;;;12.80;4.70;;;;;;;;;;5091205;28;20197;-41
2023/10/10 14:08:06;;;;;;;10.80;3.73;;;;;;;;;;5083830;28;20291;-40
2023/10/10 14:10:37;;;;;;;9.07;4.40;;;;;;;;;;5086049;28;20339;-35
2023/10/10 14:13:18;;;;;;;14.20;4.10;;;;;;;;;;5085963;28;20212;-37
2023/10/10 14:15:54;;;;;;;8.27;4.07;;;;;;;;;;5092306;28;20196;-43
2023/10/10 14:18:23;;;;;;;15.53;5.07;;;;;;;;;;5092065;28;20204;-40
2023/10/10 14:20:50;;;;;;;12.03;4.17;;;;;;;;;;5090371;28;20235;-37
2023/10/10 14:23:19;;;;;;;10.80;4.97;;;;;;;;;;5078411;28;20270;-39
2023/10/10 14:25:47;;;;;;;12.90;4.17;;;;;;;;;;5089117;28;20202;-35
2023/10/10 14:28:16;;;;;;;9.77;3.97;;;;;;;;;;5085070;28;20200;-37
2023/10/10 14:30:43;;;;;;;11.87;4.67;;;;;;;;;;5086651;28;20229;-37
2023/10/10 14:33:11;;;;;;;9.23;3.90;;;;;;;;;;5090942;28;20202;-37
2023/10/10 14:35:39;;;;;;;12.17;4.80;;;;;;;;;;5087945;28;20208;-39
2023/10/10 14:38:07;;;;;;;13.93;4.17;;;;;;;;;;5075329;28;20202;-37
2023/10/10 14:40:35;;;;;;;12.33;4.70;;;;;;;;;;5091297;28;20229;-35
2023/10/10 14:43:06;;;;;;;14.73;5.07;;;;;;;;;;5084125;28;20232;-42
2023/10/10 14:45:34;;;;;;;11.40;4.93;;;;;;;;;;5087525;28;20213;-34
2023/10/10 14:48:06;;;;;;;13.90;4.83;;;;;;;;;;5090156;28;20205;-39
2023/10/10 14:50:44;;;;;;;13.90;5.43;;;;;;;;;;5083058;28;20213;-40
2023/10/10 14:53:11;;;;;;;18.77;4.63;;;;;;;;;;5089227;28;20263;-40
2023/10/10 14:55:39;;;;;;;10.80;4.80;;;;;;;;;;5091413;28;20205;-34
2023/10/10 14:58:09;;;;;;;9.47;4.07;;;;;;;;;;5089463;28;20202;-38
2023/10/10 15:00:40;;;;;;;11.60;4.27;;;;;;;;;;5087724;28;20247;-35
2023/10/10 15:03:12;;;;;;;10.77;4.50;;;;;;;;;;5092376;28;20206;-36
2023/10/10 15:05:47;;;;;;;12.97;4.60;;;;;;;;;;5089632;28;20275;-42
2023/10/10 15:08:14;;;;;;;11.37;4.67;;;;;;;;;;5085056;28;20209;-38
2023/10/10 15:10:42;;;;;;;12.70;4.60;;;;;;;;;;5092080;28;20324;-35
2023/10/10 15:13:10;;;;;;;11.47;5.37;;;;;;;;;;5079913;28;20210;-39
2023/10/10 15:15:37;;;;;;;17.60;5.00;;;;;;;;;;5091412;28;20205;-37
2023/10/10 15:18:05;;;;;;;12.33;4.60;;;;;;;;;;5091258;28;20236;-36
2023/10/10 15:20:35;;;;;;;11.57;4.77;;;;;;;;;;5094244;28;20228;-40
2023/10/10 15:23:04;;;;;;;8.57;4.13;;;;;;;;;;5085322;28;20204;-41
2023/10/10 15:25:31;;;;;;;11.63;4.63;;;;;;;;;;5089372;28;20206;-38
2023/10/10 15:27:59;;;;;;;12.40;4.47;;;;;;;;;;5083700;28;20205;-39
2023/10/10 15:30:26;;;;;;;9.07;5.20;;;;;;;;;;5088738;28;20251;-38
2023/10/10 15:32:57;;;;;;;10.97;4.50;;;;;;;;;;5093746;28;20312;-37
2023/10/10 15:35:25;;;;;;;9.97;4.30;;;;;;;;;;5093849;28;20216;-40
2023/10/10 15:37:52;;;;;;;11.70;4.90;;;;;;;;;;5087076;28;20208;-35
2023/10/10 15:40:21;;;;;;;12.57;5.07;;;;;;;;;;5084869;28;20235;-38
2023/10/10 15:42:49;;;;;;;11.17;5.03;;;;;;;;;;5083640;28;20323;-32
2023/10/10 15:45:20;;;;;;;13.47;5.47;;;;;;;;;;5092457;28;20211;-43
2023/10/10 15:47:48;;;;;;;12.30;5.67;;;;;;;;;;5095304;28;20197;-34
2023/10/10 15:50:17;;;;;;;11.33;5.70;;;;;;;;;;5100721;28;20220;-40
2023/10/10 15:52:48;;;;;;;14.70;5.30;;;;;;;;;;5091286;28;20208;-33
2023/10/10 15:55:16;;;;;;;12.23;4.90;;;;;;;;;;5093249;28;20220;-39
2023/10/10 15:57:44;;;;;;;11.33;5.27;;;;;;;;;;5078721;28;20291;-37
2023/10/10 16:00:15;;;;;;;10.83;5.33;;;;;;;;;;5090586;28;20267;-42
2023/10/10 16:02:42;;;;;;;12.43;4.97;;;;;;;;;;5093819;28;20200;-40
2023/10/10 16:05:15;;;;;;;8.37;4.77;;;;;;;;;;5086614;28;20197;-40
2023/10/10 16:07:46;;;;;;;10.97;5.07;;;;;;;;;;5093549;28;20209;-41
2023/10/10 16:10:13;;;;;;;10.77;4.60;;;;;;;;;;5093062;28;20282;-39
2023/10/10 16:12:42;;;;;;;12.40;5.20;;;;;;;;;;5084061;28;20208;-32
2023/10/10 16:15:18;;;;;;;10.30;4.97;;;;;;;;;;5088375;28;20223;-35
2023/10/10 16:17:45;;;;;;;13.73;5.40;;;;;;;;;;5093468;28;20195;-40
2023/10/10 16:20:14;;;;;;;10.13;5.03;;;;;;;;;;5091398;28;20225;-41
2023/10/10 16:22:41;;;;;;;11.93;4.77;;;;;;;;;;5083587;28;20205;-39
2023/10/10 16:25:13;;;;;;;13.40;5.07;;;;;;;;;;5091741;28;20216;-37
2023/10/10 16:27:41;;;;;;;11.10;4.67;;;;;;;;;;5083713;28;20205;-35
2023/10/10 16:30:08;;;;;;;12.20;5.50;;;;;;;;;;5089036;28;20228;-37
2023/10/10 16:32:37;;;;;;;10.13;4.60;;;;;;;;;;5093098;28;20304;-41
2023/10/10 16:35:05;;;;;;;10.37;4.90;;;;;;;;;;5088782;28;20221;-39
2023/10/10 16:37:36;;;;;;;8.53;4.63;;;;;;;;;;5094036;28;20207;-33
2023/10/10 16:40:04;;;;;;;9.47;5.10;;;;;;;;;;5093199;28;20229;-42
2023/10/10 16:42:32;;;;;;;9.80;5.17;;;;;;;;;;5083055;28;20217;-34
2023/10/10 16:44:59;;;;;;;8.73;4.73;;;;;;;;;;5089312;28;20204;-40
2023/10/10 16:47:27;;;;;;;12.33;4.50;;;;;;;;;;5092899;28;20204;-36
2023/10/10 16:49:55;;;;;;;8.90;5.03;;;;;;;;;;5086653;28;20260;-39
2023/10/10 16:52:25;;;;;;;13.53;4.47;;;;;;;;;;5089348;28;20201;-38
2023/10/10 16:54:53;;;;;;;9.57;4.37;;;;;;;;;;5082889;28;20224;-38
2023/10/10 16:57:22;;;;;;;11.10;5.20;;;;;;;;;;5080720;28;20207;-38
2023/10/10 16:59:50;;;;;;;24.20;11.63;;;;;;;;;;5079571;28;20220;-38